createdAt,value
2022-07-30T00:01:17.667Z,21.34
2022-07-30T00:03:44.489Z,21.26
2022-07-30T00:06:11.272Z,21.32
2022-07-30T00:08:37.936Z,21.37
2022-07-30T00:11:04.647Z,21.33
2022-07-30T00:13:31.680Z,21.39
2022-07-30T00:15:58.400Z,21.43
2022-07-30T00:18:25.014Z,21.27
2022-07-30T00:20:51.965Z,21.42
2022-07-30T00:23:18.622Z,21.44
2022-07-30T00:25:45.416Z,21.21
2022-07-30T00:28:12.184Z,21.03
2022-07-30T00:30:40.799Z,21.29
2022-07-30T00:33:08.397Z,21.41
2022-07-30T00:35:35.530Z,21.41
2022-07-30T00:38:02.194Z,21.41
2022-07-30T00:40:28.857Z,21.49
2022-07-30T00:42:55.633Z,21.50
2022-07-30T00:45:22.408Z,21.51
2022-07-30T00:47:49.132Z,21.52
2022-07-30T00:50:16.432Z,21.54
2022-07-30T00:52:43.594Z,21.53
2022-07-30T00:55:12.500Z,21.52
2022-07-30T00:57:40.100Z,21.55
2022-07-30T01:00:10.886Z,21.56
2022-07-30T01:02:37.846Z,21.57
2022-07-30T01:05:05.260Z,21.55
2022-07-30T01:07:31.983Z,21.08
2022-07-30T01:09:58.624Z,21.10
2022-07-30T01:12:26.977Z,21.28
2022-07-30T01:14:56.262Z,21.28
2022-07-30T01:17:22.988Z,21.10
2022-07-30T01:19:52.596Z,20.96
2022-07-30T01:22:26.568Z,20.24
2022-07-30T01:25:03.641Z,19.93
2022-07-30T01:27:33.897Z,20.45
2022-07-30T01:30:05.193Z,20.76
2022-07-30T01:32:34.975Z,20.93
2022-07-30T01:35:03.538Z,21.03
2022-07-30T01:37:32.087Z,21.07
2022-07-30T01:39:59.528Z,21.07
2022-07-30T01:42:28.780Z,21.01
2022-07-30T01:44:57.298Z,21.06
2022-07-30T01:47:25.366Z,20.62
2022-07-30T01:49:53.496Z,20.42
2022-07-30T01:52:22.194Z,20.48
2022-07-30T01:54:51.042Z,20.60
2022-07-30T01:57:20.858Z,20.72
2022-07-30T01:59:50.374Z,20.66
2022-07-30T02:02:18.140Z,20.82
2022-07-30T02:04:45.145Z,20.77
2022-07-30T02:07:27.877Z,20.96
2022-07-30T02:10:01.778Z,21.00
2022-07-30T02:12:31.116Z,20.97
2022-07-30T02:15:17.763Z,21.05
2022-07-30T02:18:00.370Z,21.10
2022-07-30T02:20:30.369Z,21.04
2022-07-30T02:23:06.102Z,20.79
2022-07-30T02:25:34.891Z,20.59
2022-07-30T02:28:09.929Z,20.81
2022-07-30T02:30:40.751Z,20.86
2022-07-30T02:33:12.958Z,20.90
2022-07-30T02:35:41.301Z,20.85
2022-07-30T02:38:10.252Z,20.73
2022-07-30T02:40:41.998Z,20.86
2022-07-30T02:43:09.223Z,20.85
2022-07-30T02:45:37.491Z,20.79
2022-07-30T02:48:09.077Z,20.84
2022-07-30T02:50:36.990Z,20.78
2022-07-30T02:53:06.954Z,20.87
2022-07-30T02:55:35.553Z,20.86
2022-07-30T02:58:05.188Z,20.93
2022-07-30T03:00:33.941Z,20.97
2022-07-30T03:03:01.850Z,20.91
2022-07-30T03:05:29.451Z,20.89
2022-07-30T03:07:59.776Z,20.73
2022-07-30T03:10:27.911Z,20.77
2022-07-30T03:12:56.282Z,20.68
2022-07-30T03:15:23.356Z,20.82
2022-07-30T03:17:53.898Z,20.84
2022-07-30T03:20:27.817Z,20.63
2022-07-30T03:22:57.348Z,20.71
2022-07-30T03:25:26.842Z,20.79
2022-07-30T03:27:55.730Z,20.74
2022-07-30T03:30:26.732Z,20.71
2022-07-30T03:32:54.147Z,20.66
2022-07-30T03:35:22.187Z,20.75
2022-07-30T03:37:49.651Z,20.66
2022-07-30T03:40:17.279Z,20.72
2022-07-30T03:42:45.633Z,20.80
2022-07-30T03:45:16.083Z,20.67
2022-07-30T03:47:44.053Z,20.77
2022-07-30T03:50:12.423Z,20.69
2022-07-30T03:52:41.443Z,20.61
2022-07-30T03:55:11.065Z,20.53
2022-07-30T03:57:37.918Z,20.34
2022-07-30T04:00:08.341Z,20.36
2022-07-30T04:02:42.666Z,20.59
2022-07-30T04:05:09.816Z,20.54
2022-07-30T04:07:41.372Z,20.52
2022-07-30T04:10:12.442Z,20.25
2022-07-30T04:12:39.079Z,19.86
2022-07-30T04:16:04.842Z,19.96
2022-07-30T04:17:58.710Z,20.13
2022-07-30T04:20:31.540Z,20.15
2022-07-30T04:22:59.167Z,20.08
2022-07-30T04:25:26.537Z,20.02
2022-07-30T04:28:03.097Z,20.07
2022-07-30T04:30:31.615Z,20.14
2022-07-30T04:32:58.267Z,20.24
2022-07-30T04:35:50.065Z,20.02
2022-07-30T04:38:19.582Z,19.61
2022-07-30T04:40:46.614Z,19.12
2022-07-30T04:43:13.316Z,19.06
2022-07-30T04:45:40.948Z,19.37
2022-07-30T04:48:08.207Z,19.52
2022-07-30T04:50:38.607Z,19.52
2022-07-30T04:53:05.779Z,18.92
2022-07-30T04:55:34.048Z,18.56
2022-07-30T04:58:02.150Z,18.71
2022-07-30T05:00:32.351Z,18.54
2022-07-30T05:03:00.808Z,18.09
2022-07-30T05:05:31.383Z,18.42
2022-07-30T05:07:58.757Z,18.47
2022-07-30T05:10:25.872Z,18.02
2022-07-30T05:12:52.556Z,17.92
2022-07-30T05:15:19.975Z,18.00
2022-07-30T05:17:46.887Z,17.85
2022-07-30T05:20:14.347Z,17.69
2022-07-30T05:22:42.857Z,17.71
2022-07-30T05:25:17.983Z,17.89
2022-07-30T05:27:44.672Z,18.11
2022-07-30T05:30:11.905Z,17.74
2022-07-30T05:32:39.802Z,17.74
2022-07-30T05:35:06.782Z,17.53
2022-07-30T05:37:33.678Z,17.58
2022-07-30T05:40:03.219Z,17.33
2022-07-30T05:42:30.295Z,17.28
2022-07-30T05:44:57.110Z,17.15
2022-07-30T05:47:23.866Z,17.19
2022-07-30T05:49:50.526Z,17.20
2022-07-30T05:52:17.192Z,17.21
2022-07-30T05:54:44.358Z,17.43
2022-07-30T05:57:11.618Z,17.48
2022-07-30T05:59:38.622Z,17.53
2022-07-30T06:02:06.803Z,17.81
2022-07-30T06:04:35.587Z,17.74
2022-07-30T06:07:02.745Z,17.72
2022-07-30T06:09:36.809Z,17.89
2022-07-30T06:12:04.495Z,17.90
2022-07-30T06:14:32.350Z,18.09
2022-07-30T06:16:59.520Z,18.28
2022-07-30T06:19:26.484Z,18.55
2022-07-30T06:22:05.763Z,18.97
2022-07-30T06:24:33.987Z,19.16
2022-07-30T06:27:01.012Z,19.41
2022-07-30T06:29:27.970Z,19.49
2022-07-30T06:31:54.630Z,19.64
2022-07-30T06:34:21.289Z,19.70
2022-07-30T06:36:48.419Z,19.89
2022-07-30T06:39:15.235Z,20.05
2022-07-30T06:42:01.950Z,20.22
2022-07-30T06:44:28.929Z,20.24
2022-07-30T06:46:55.655Z,20.18
2022-07-30T06:49:22.895Z,20.22
2022-07-30T06:51:49.690Z,20.56
2022-07-30T06:54:16.299Z,20.71
2022-07-30T06:56:43.034Z,20.58
2022-07-30T06:59:10.516Z,20.62
2022-07-30T07:01:37.272Z,20.83
2022-07-30T07:04:04.419Z,20.93
2022-07-30T07:06:31.148Z,20.96
2022-07-30T07:08:57.791Z,21.11
2022-07-30T07:11:24.628Z,21.02
2022-07-30T07:13:51.281Z,21.29
2022-07-30T07:16:21.842Z,21.50
2022-07-30T07:18:48.780Z,21.57
2022-07-30T07:21:15.764Z,21.48
2022-07-30T07:23:42.566Z,21.58
2022-07-30T07:26:09.744Z,21.54
2022-07-30T07:28:36.443Z,21.59
2022-07-30T07:31:03.473Z,21.46
2022-07-30T07:33:30.243Z,21.40
2022-07-30T07:35:56.923Z,21.53
2022-07-30T07:38:23.594Z,21.20
2022-07-30T07:40:50.296Z,21.27
2022-07-30T07:43:16.933Z,21.32
2022-07-30T07:45:43.967Z,21.37
2022-07-30T07:48:10.656Z,21.26
2022-07-30T07:50:37.634Z,21.24
2022-07-30T07:53:04.742Z,20.77
2022-07-30T07:55:32.834Z,20.92
2022-07-30T07:57:59.690Z,20.94
2022-07-30T08:00:26.639Z,20.62
2022-07-30T08:02:53.338Z,20.54
2022-07-30T08:05:20.168Z,20.34
2022-07-30T08:07:46.945Z,20.37
2022-07-30T08:10:16.030Z,20.49
2022-07-30T08:12:43.303Z,20.53
2022-07-30T08:15:10.311Z,20.57
2022-07-30T08:17:41.469Z,20.50
2022-07-30T08:20:09.146Z,20.48
2022-07-30T08:22:35.799Z,20.36
2022-07-30T08:25:03.807Z,20.32
2022-07-30T08:27:31.171Z,20.44
2022-07-30T08:29:57.996Z,20.50
2022-07-30T08:32:25.265Z,20.57
2022-07-30T08:34:51.882Z,20.75
2022-07-30T08:37:19.419Z,20.66
2022-07-30T08:39:46.043Z,20.74
2022-07-30T08:42:14.594Z,20.74
2022-07-30T08:44:44.371Z,20.62
2022-07-30T08:47:16.203Z,20.70
2022-07-30T08:49:43.294Z,20.69
2022-07-30T08:52:11.483Z,20.66
2022-07-30T08:54:40.779Z,20.74
2022-07-30T08:57:07.966Z,20.84
2022-07-30T08:59:52.935Z,21.02
2022-07-30T09:02:27.123Z,21.13
2022-07-30T09:04:54.518Z,21.58
2022-07-30T09:07:21.541Z,21.57
2022-07-30T09:09:48.155Z,21.83
2022-07-30T09:12:37.818Z,22.05
2022-07-30T09:15:20.313Z,21.88
2022-07-30T09:17:58.099Z,22.14
2022-07-30T09:20:29.923Z,22.33
2022-07-30T09:22:59.259Z,22.40
2022-07-30T09:25:36.089Z,22.43
2022-07-30T09:28:03.299Z,22.47
2022-07-30T09:30:47.076Z,22.59
2022-07-30T09:33:14.139Z,22.59
2022-07-30T09:35:42.807Z,22.58
2022-07-30T09:38:10.147Z,22.61
2022-07-30T09:40:37.767Z,22.10
2022-07-30T09:43:11.767Z,22.20
2022-07-30T09:45:56.708Z,22.62
2022-07-30T09:48:28.371Z,22.91
2022-07-30T09:54:01.012Z,23.15
2022-07-30T09:56:30.151Z,22.97
2022-07-30T09:58:57.159Z,23.10
2022-07-30T10:01:23.886Z,23.24
2022-07-30T10:04:10.561Z,23.22
2022-07-30T10:06:42.033Z,23.21
2022-07-30T10:09:14.284Z,23.33
2022-07-30T10:11:44.752Z,23.33
2022-07-30T10:14:12.732Z,23.62
2022-07-30T10:16:40.693Z,23.69
2022-07-30T10:19:07.540Z,23.25
2022-07-30T10:21:45.467Z,23.21
2022-07-30T10:24:16.265Z,22.75
2022-07-30T10:26:44.347Z,22.89
2022-07-30T10:29:15.847Z,22.89
2022-07-30T10:31:47.505Z,23.04
2022-07-30T10:34:23.970Z,23.43
2022-07-30T10:37:00.378Z,23.80
2022-07-30T10:39:35.507Z,24.41
2022-07-30T10:42:28.475Z,24.58
2022-07-30T10:45:17.493Z,24.40
2022-07-30T10:47:48.785Z,24.59
2022-07-30T10:50:22.355Z,24.80
2022-07-30T10:52:57.989Z,24.75
2022-07-30T10:55:37.557Z,24.30
2022-07-30T10:58:12.347Z,24.35
2022-07-30T11:00:53.711Z,24.06
2022-07-30T11:03:40.685Z,23.87
2022-07-30T11:06:24.313Z,23.47
2022-07-30T11:08:51.794Z,23.53
2022-07-30T11:12:01.624Z,23.64
2022-07-30T11:14:08.264Z,23.63
2022-07-30T11:16:34.931Z,23.32
2022-07-30T11:19:50.347Z,23.39
2022-07-30T11:22:22.928Z,23.60
2022-07-30T11:24:49.952Z,23.64
2022-07-30T11:27:36.423Z,23.64
2022-07-30T11:30:05.591Z,23.20
2022-07-30T11:32:34.174Z,23.52
2022-07-30T11:35:24.306Z,23.84
2022-07-30T11:38:13.020Z,23.88
2022-07-30T11:40:42.370Z,23.24
2022-07-30T11:43:37.039Z,22.83
2022-07-30T11:46:28.852Z,22.56
2022-07-30T11:49:10.400Z,22.83
2022-07-30T11:51:44.388Z,23.06
2022-07-30T11:54:12.204Z,22.86
2022-07-30T11:56:53.763Z,22.35
2022-07-30T11:59:20.736Z,21.61
2022-07-30T12:02:01.587Z,21.25
2022-07-30T12:04:28.804Z,21.22
2022-07-30T12:06:55.485Z,21.54
2022-07-30T12:09:27.291Z,20.96
2022-07-30T12:11:54.657Z,20.47
2022-07-30T12:14:21.326Z,19.85
2022-07-30T12:16:53.111Z,19.61
2022-07-30T12:19:19.871Z,19.59
2022-07-30T12:21:50.934Z,19.51
2022-07-30T12:24:24.165Z,19.22
2022-07-30T12:26:50.824Z,19.62
2022-07-30T12:29:18.329Z,19.96
2022-07-30T12:31:46.191Z,19.73
2022-07-30T12:34:24.021Z,19.66
2022-07-30T12:36:51.039Z,19.87
2022-07-30T12:39:22.913Z,20.15
2022-07-30T12:41:51.588Z,20.16
2022-07-30T12:44:41.661Z,20.05
2022-07-30T12:47:28.781Z,20.12
2022-07-30T12:49:57.633Z,20.54
2022-07-30T12:52:30.805Z,20.90
2022-07-30T12:54:57.714Z,21.09
2022-07-30T12:57:24.503Z,21.15
2022-07-30T13:00:08.285Z,21.27
2022-07-30T13:02:36.314Z,20.53
2022-07-30T13:05:10.620Z,19.90
2022-07-30T13:07:59.714Z,19.95
2022-07-30T13:10:30.710Z,20.29
2022-07-30T13:12:58.565Z,20.58
2022-07-30T13:15:25.295Z,20.91
2022-07-30T13:17:52.060Z,21.19
2022-07-30T13:20:19.194Z,21.09
2022-07-30T13:22:46.100Z,21.45
2022-07-30T13:25:13.387Z,21.47
2022-07-30T13:27:40.266Z,20.91
2022-07-30T13:30:07.866Z,20.51
2022-07-30T13:32:35.691Z,19.89
2022-07-30T13:35:03.148Z,19.85
2022-07-30T13:37:37.570Z,20.26
2022-07-30T13:40:06.297Z,20.55
2022-07-30T13:42:33.381Z,20.79
2022-07-30T13:45:00.075Z,20.88
2022-07-30T13:47:26.715Z,21.41
2022-07-30T13:49:53.413Z,21.86
2022-07-30T13:52:20.203Z,22.40
2022-07-30T13:54:46.929Z,22.62
2022-07-30T13:57:13.579Z,22.83
2022-07-30T13:59:40.265Z,22.82
2022-07-30T14:02:07.055Z,23.02
2022-07-30T14:04:34.102Z,23.27
2022-07-30T14:07:01.205Z,23.52
2022-07-30T14:09:28.366Z,23.57
2022-07-30T14:11:55.191Z,23.58
2022-07-30T14:14:22.622Z,23.52
2022-07-30T14:16:58.754Z,23.39
2022-07-30T14:19:25.635Z,23.80
2022-07-30T14:21:53.851Z,24.08
2022-07-30T14:24:22.337Z,24.06
2022-07-30T14:26:55.868Z,23.78
2022-07-30T14:29:24.295Z,23.72
2022-07-30T14:31:50.950Z,23.52
2022-07-30T14:34:19.210Z,23.71
2022-07-30T14:36:45.859Z,23.91
2022-07-30T14:39:12.500Z,24.09
2022-07-30T14:41:39.215Z,24.11
2022-07-30T14:44:05.954Z,24.02
2022-07-30T14:46:32.595Z,24.12
2022-07-30T14:48:59.253Z,24.27
2022-07-30T14:51:27.669Z,24.40
2022-07-30T14:53:56.977Z,24.60
2022-07-30T14:56:25.170Z,24.70
2022-07-30T14:58:52.370Z,24.71
2022-07-30T15:01:19.301Z,25.07
2022-07-30T15:03:46.606Z,25.33
2022-07-30T15:06:15.415Z,25.11
2022-07-30T15:08:43.130Z,25.33
2022-07-30T15:11:09.879Z,24.96
2022-07-30T15:13:38.524Z,24.75
2022-07-30T15:16:07.274Z,24.96
2022-07-30T15:18:33.986Z,24.82
2022-07-30T15:21:00.650Z,24.89
2022-07-30T15:23:27.330Z,24.97
2022-07-30T15:25:53.984Z,24.85
2022-07-30T15:28:20.723Z,24.35
2022-07-30T15:30:47.503Z,24.42
2022-07-30T15:33:14.203Z,24.69
2022-07-30T15:35:41.495Z,24.97
2022-07-30T15:38:08.162Z,25.19
2022-07-30T15:40:34.898Z,25.35
2022-07-30T15:43:01.555Z,25.56
2022-07-30T15:45:52.379Z,25.34
2022-07-30T15:48:26.882Z,25.43
2022-07-30T15:50:54.638Z,25.69
2022-07-30T15:53:21.249Z,25.65
2022-07-30T15:55:47.958Z,25.13
2022-07-30T15:58:14.609Z,25.34
2022-07-30T16:00:41.339Z,25.34
2022-07-30T16:03:08.079Z,24.73
2022-07-30T16:05:51.126Z,24.74
2022-07-30T16:08:18.546Z,24.91
2022-07-30T16:10:45.214Z,24.89
2022-07-30T16:13:11.883Z,24.97
2022-07-30T16:15:38.606Z,24.98
2022-07-30T16:18:05.773Z,24.44
2022-07-30T16:20:33.038Z,24.08
2022-07-30T16:22:59.700Z,24.15
2022-07-30T16:25:26.525Z,23.99
2022-07-30T16:27:53.326Z,24.09
2022-07-30T16:30:20.214Z,23.94
2022-07-30T16:32:46.954Z,23.57
2022-07-30T16:35:13.697Z,23.81
2022-07-30T16:37:40.414Z,24.13
2022-07-30T16:40:07.515Z,24.16
2022-07-30T16:42:34.129Z,24.05
2022-07-30T16:45:00.803Z,24.17
2022-07-30T16:47:27.463Z,23.90
2022-07-30T16:50:01.022Z,23.72
2022-07-30T16:52:27.760Z,24.05
2022-07-30T16:54:54.493Z,24.11
2022-07-30T16:57:21.126Z,24.17
2022-07-30T16:59:47.883Z,24.13
2022-07-30T17:02:14.561Z,24.15
2022-07-30T17:04:41.673Z,24.27
2022-07-30T17:07:08.415Z,24.37
2022-07-30T17:09:36.795Z,24.42
2022-07-30T17:12:06.451Z,24.37
2022-07-30T17:14:40.576Z,24.38
2022-07-30T17:17:12.015Z,24.02
2022-07-30T17:19:40.671Z,23.78
2022-07-30T17:22:07.440Z,24.08
2022-07-30T17:24:34.216Z,24.21
2022-07-30T17:27:00.941Z,24.24
2022-07-30T17:29:27.590Z,23.99
2022-07-30T17:31:55.569Z,24.16
2022-07-30T17:34:22.411Z,24.20
2022-07-30T17:36:52.331Z,24.11
2022-07-30T17:40:26.279Z,24.08
2022-07-30T17:42:10.279Z,24.02
2022-07-30T17:44:37.314Z,23.92
2022-07-30T17:47:03.951Z,23.92
2022-07-30T17:49:31.012Z,23.95
2022-07-30T17:51:57.968Z,23.94
2022-07-30T17:54:24.920Z,23.89
2022-07-30T17:56:51.673Z,23.60
2022-07-30T17:59:18.352Z,23.57
2022-07-30T18:01:45.081Z,23.72
2022-07-30T18:04:11.716Z,23.81
2022-07-30T18:06:38.390Z,23.75
2022-07-30T18:09:05.465Z,23.58
2022-07-30T18:11:32.493Z,23.58
2022-07-30T18:13:59.212Z,23.61
2022-07-30T18:16:26.321Z,23.47
2022-07-30T18:18:52.949Z,23.35
2022-07-30T18:21:19.641Z,23.37
2022-07-30T18:23:46.547Z,23.46
2022-07-30T18:26:14.971Z,23.39
2022-07-30T18:28:41.731Z,23.34
2022-07-30T18:31:08.408Z,23.34
2022-07-30T18:33:35.083Z,23.12
2022-07-30T18:36:01.856Z,23.11
2022-07-30T18:38:28.548Z,22.91
2022-07-30T18:40:57.922Z,22.96
2022-07-30T18:43:28.358Z,23.00
2022-07-30T18:45:55.778Z,22.91
2022-07-30T18:48:23.091Z,22.61
2022-07-30T18:50:50.486Z,22.54
2022-07-30T18:53:17.346Z,22.67
2022-07-30T18:55:44.512Z,22.74
2022-07-30T18:58:12.040Z,22.62
2022-07-30T19:00:39.884Z,22.54
2022-07-30T19:03:16.274Z,22.47
2022-07-30T19:05:45.537Z,22.51
2022-07-30T19:08:12.186Z,22.54
2022-07-30T19:10:39.996Z,22.57
2022-07-30T19:13:06.699Z,22.51
2022-07-30T19:15:33.334Z,22.37
2022-07-30T19:18:01.201Z,22.18
2022-07-30T19:20:28.135Z,22.20
2022-07-30T19:23:02.703Z,22.29
2022-07-30T19:25:30.887Z,22.08
2022-07-30T19:27:57.590Z,21.97
2022-07-30T19:30:24.366Z,22.04
2022-07-30T19:32:51.134Z,21.83
2022-07-30T19:35:17.880Z,21.62
2022-07-30T19:37:44.728Z,21.56
2022-07-30T19:40:12.889Z,21.63
2022-07-30T19:42:41.329Z,21.71
2022-07-30T19:45:11.407Z,21.57
2022-07-30T19:47:39.862Z,21.61
2022-07-30T19:50:10.462Z,21.60
2022-07-30T19:52:38.054Z,21.60
2022-07-30T19:55:17.052Z,21.58
2022-07-30T19:57:54.545Z,21.43
2022-07-30T20:00:24.819Z,21.40
2022-07-30T20:02:52.339Z,21.39
2022-07-30T20:05:19.636Z,21.23
2022-07-30T20:10:34.766Z,21.11
2022-07-30T20:13:01.413Z,20.93
2022-07-30T20:15:33.180Z,20.80
2022-07-30T20:18:01.805Z,20.93
2022-07-30T20:20:29.965Z,20.73
2022-07-30T20:22:56.595Z,20.60
2022-07-30T20:25:25.151Z,20.69
2022-07-30T20:27:51.791Z,20.74
2022-07-30T20:30:18.415Z,20.57
2022-07-30T20:32:52.226Z,20.58
2022-07-30T20:35:21.428Z,20.46
2022-07-30T20:37:54.663Z,20.39
2022-07-30T20:40:23.453Z,20.56
2022-07-30T20:42:50.194Z,20.49
2022-07-30T20:45:16.887Z,20.60
2022-07-30T20:47:52.438Z,20.52
2022-07-30T20:50:19.343Z,20.52
2022-07-30T20:52:57.705Z,20.56
2022-07-30T20:55:24.362Z,20.54
2022-07-30T20:58:01.966Z,20.51
2022-07-30T21:00:38.200Z,20.47
2022-07-30T21:03:05.592Z,20.30
2022-07-30T21:05:32.365Z,20.36
2022-07-30T21:07:59.025Z,20.37
2022-07-30T21:10:25.781Z,20.32
2022-07-30T21:12:58.626Z,20.37
2022-07-30T21:15:45.678Z,20.32
2022-07-30T21:18:26.608Z,20.21
2022-07-30T21:20:53.463Z,20.20
2022-07-30T21:23:23.617Z,20.19
2022-07-30T21:28:41.000Z,19.97
2022-07-30T21:31:07.707Z,20.01
2022-07-30T21:33:36.417Z,20.04
2022-07-30T21:36:03.855Z,20.04
2022-07-30T21:38:31.915Z,19.81
2022-07-30T21:40:58.662Z,19.91
2022-07-30T21:43:29.655Z,19.96
2022-07-30T21:45:57.659Z,19.89
2022-07-30T21:48:24.777Z,19.85
2022-07-30T21:50:52.855Z,19.68
2022-07-30T21:53:29.832Z,19.72
2022-07-30T21:56:06.550Z,19.64
2022-07-30T21:58:33.290Z,19.68
2022-07-30T22:01:16.383Z,19.71
2022-07-30T22:04:04.536Z,19.57
2022-07-30T22:06:41.252Z,19.47
2022-07-30T22:09:19.190Z,19.53
2022-07-30T22:11:57.154Z,19.55
2022-07-30T22:14:28.158Z,19.58
2022-07-30T22:16:55.508Z,19.45
2022-07-30T22:19:22.183Z,19.46
2022-07-30T22:22:01.926Z,19.37
2022-07-30T22:24:31.994Z,19.43
2022-07-30T22:27:01.135Z,19.44
2022-07-30T22:29:33.791Z,19.46
2022-07-30T22:32:01.907Z,19.45
2022-07-30T22:34:28.732Z,19.47
2022-07-30T22:36:55.332Z,19.36
2022-07-30T22:39:24.402Z,19.14
2022-07-30T22:42:00.912Z,19.07
2022-07-30T22:44:28.201Z,19.11
2022-07-30T22:46:56.483Z,19.14
2022-07-30T22:49:45.264Z,19.10
2022-07-30T22:52:20.087Z,19.19
2022-07-30T22:54:52.134Z,19.19
2022-07-30T22:57:22.924Z,19.22
2022-07-30T22:59:58.185Z,19.14
2022-07-30T23:02:27.779Z,19.14
2022-07-30T23:04:54.919Z,19.03
2022-07-30T23:07:23.469Z,18.92
2022-07-30T23:09:55.732Z,18.94
2022-07-30T23:12:17.229Z,21.29
2022-07-30T23:12:23.469Z,18.97
2022-07-30T23:12:27.229Z,20.17
2022-07-30T23:14:52.338Z,18.99
2022-07-30T23:17:18.970Z,18.95
2022-07-30T23:19:45.643Z,18.84
2022-07-30T23:22:12.338Z,18.79
2022-07-30T23:24:39.149Z,18.86
2022-07-30T23:27:06.173Z,18.81
2022-07-30T23:29:32.970Z,18.78
2022-07-30T23:31:59.666Z,18.78
2022-07-30T23:34:26.635Z,18.83
2022-07-30T23:36:53.289Z,18.61
2022-07-30T23:39:19.913Z,18.62
2022-07-30T23:41:46.843Z,18.70
2022-07-30T23:44:13.533Z,18.70
2022-07-30T23:46:40.867Z,18.50
2022-07-30T23:49:07.734Z,18.54
2022-07-30T23:51:34.451Z,18.58
2022-07-30T23:54:01.663Z,18.59
2022-07-30T23:56:28.301Z,18.59
2022-07-30T23:58:54.962Z,18.56
